This is the latest recevied weather packets stored in our database for station/object K3BAK-13. If no packets are shown the sender has not sent any weather packets the latest 10 day(s).
| Time | Temp. | Humidity | Pressure | Rain* | Wind** | Luminosity | Snow |
|---|---|---|---|---|---|---|---|
| 1777799158 | 1.11° C | 89% | 1017.3 hPa | 0 mm | - | - | - |
| 1777798860 | 1.11° C | 89% | 1017.2 hPa | 0 mm | - | - | - |
| 1777797357 | 1.11° C | 87% | 1017.1 hPa | 0 mm | - | - | - |
| 1777794059 | 1.67° C | 86% | 1017 hPa | 0 mm | - | - | - |
| 1777792572 | 1.67° C | 87% | 1016.8 hPa | 0 mm | - | - | - |
| 1777792258 | 1.67° C | 87% | 1016.8 hPa | 0 mm | - | - | - |
| 1777790460 | 1.11° C | 89% | 1016.9 hPa | 0 mm | - | - | - |
| 1777790160 | 1.11° C | 89% | 1016.8 hPa | 0 mm | - | - | - |
| 1777789863 | 1.11° C | 90% | 1016.9 hPa | 0 mm | - | - | - |
| 1777789259 | 1.11° C | 90% | 1016.9 hPa | 0 mm | - | - | - |
| 1777788361 | 1.11° C | 90% | 1017 hPa | 0 mm | - | - | - |
| 1777788075 | 1.11° C | 90% | 1016.9 hPa | 0 mm | - | - | - |
| 1777787182 | 1.11° C | 90% | 1017.1 hPa | 0 mm | - | - | - |
| 1777785362 | 0.56° C | 89% | 1017.2 hPa | 0 mm | - | - | - |
| 1777784460 | 1.11° C | 88% | 1017.2 hPa | 0 mm | - | - | - |
| 1777783559 | 1.11° C | 88% | 1017.2 hPa | 0 mm | - | - | - |
| 1777781160 | 1.67° C | 86% | 1017.4 hPa | 0 mm | - | - | - |
| 1777780557 | 2.22° C | 84% | 1017.2 hPa | 0 mm | - | - | - |
| 1777778460 | 3.33° C | 81% | 1017.3 hPa | 0 mm | - | - | - |
| 1777777857 | 3.33° C | 79% | 1017.4 hPa | 0 mm | - | - | - |
| 1777777560 | 3.33° C | 79% | 1017.3 hPa | 0 mm | - | - | - |
| 1777776057 | 3.89° C | 76% | 1017.4 hPa | 0 mm | - | - | - |
| 1777774564 | 4.44° C | 75% | 1017.4 hPa | 0 mm | - | - | - |
| 1777770359 | 4.44° C | 74% | 1017.3 hPa | 0 mm | - | - | - |
| 1777768858 | 5° C | 72% | 1017 hPa | 0 mm | - | - | - |
* Rain latest hour (hover to see other rain measurements)
** Current wind speed in m/s (hover to see current wind gust speed)